TimeMST,TemperatureF,Dew PointF,Humidity,Sea Level PressureIn,VisibilityMPH,Wind Direction,Wind SpeedMPH,Gust SpeedMPH,PrecipitationIn,Events,Conditions,WindDirDegrees,DateUTC
12:53 AM,28.0,16.0,61,29.93,10.0,NNW,9.2,-,N/A,,Clear,340,2013-01-07 07:53:00
1:53 AM,28.0,16.0,61,29.93,10.0,NW,4.6,-,N/A,,Clear,320,2013-01-07 08:53:00
2:53 AM,27.0,15.1,61,29.94,10.0,NE,3.5,-,N/A,,Clear,40,2013-01-07 09:53:00
3:53 AM,32.0,14.0,48,29.93,10.0,WNW,9.2,-,N/A,,Clear,300,2013-01-07 10:53:00
4:53 AM,28.9,12.0,49,30.02,10.0,Calm,Calm,-,N/A,,Clear,0,2013-01-07 11:53:00
5:53 AM,26.1,10.9,53,30.04,10.0,NW,3.5,-,N/A,,Clear,320,2013-01-07 12:53:00
6:53 AM,21.9,12.0,66,30.09,10.0,NW,5.8,-,N/A,,Clear,320,2013-01-07 13:53:00
7:53 AM,25.0,12.0,58,30.10,10.0,North,9.2,-,N/A,,Clear,360,2013-01-07 14:53:00
8:53 AM,33.1,14.0,46,30.09,10.0,NNW,6.9,-,N/A,,Clear,340,2013-01-07 15:53:00
9:53 AM,39.0,12.9,34,30.09,10.0,NNW,10.4,-,N/A,,Clear,330,2013-01-07 16:53:00
10:53 AM,42.1,14.0,32,30.05,10.0,North,6.9,-,N/A,,Clear,350,2013-01-07 17:53:00
11:53 AM,48.2,8.6,20,29.94,10.0,NNW,9.2,-,N/A,,Clear,330,2013-01-07 18:53:00
12:53 PM,48.9,9.0,20,29.94,10.0,SSW,8.1,-,N/A,,Clear,200,2013-01-07 19:53:00
1:53 PM,48.9,9.0,20,29.91,10.0,South,8.1,-,N/A,,Clear,170,2013-01-07 20:53:00
2:53 PM,48.9,7.0,18,29.92,10.0,Calm,Calm,-,N/A,,Clear,0,2013-01-07 21:53:00
3:53 PM,42.8,17.6,36,29.88,10.0,ESE,8.1,-,N/A,,Clear,110,2013-01-07 22:53:00
4:53 PM,32.0,18.0,56,29.93,10.0,East,6.9,-,N/A,,Clear,100,2013-01-07 23:53:00
5:53 PM,28.0,19.0,69,29.94,10.0,ESE,10.4,-,N/A,,Clear,110,2013-01-08 00:53:00
6:53 PM,27.0,19.9,75,29.96,10.0,East,8.1,-,N/A,,Clear,80,2013-01-08 01:53:00
7:53 PM,27.0,19.0,72,29.94,10.0,East,9.2,-,N/A,,Clear,90,2013-01-08 02:53:00
8:53 PM,25.0,18.0,75,29.90,10.0,ESE,8.1,-,N/A,,Clear,110,2013-01-08 03:53:00
9:53 PM,24.1,18.0,77,29.88,10.0,SE,9.2,-,N/A,,Clear,140,2013-01-08 04:53:00
10:53 PM,25.0,16.0,69,29.84,10.0,SE,9.2,-,N/A,,Mostly Cloudy,140,2013-01-08 05:53:00
11:53 PM,30.0,17.1,59,29.78,10.0,Calm,Calm,-,N/A,,Partly Cloudy,0,2013-01-08 06:53:00